createdAt,value
2019-04-23T00:03:55.685Z,2.50
2019-04-23T00:06:23.360Z,2.73
2019-04-23T00:09:09.082Z,2.43
2019-04-23T00:11:25.475Z,2.37
2019-04-23T00:14:13.807Z,2.50
2019-04-23T00:16:27.632Z,2.20
2019-04-23T00:19:02.407Z,2.40
2019-04-23T00:21:33.403Z,2.43
2019-04-23T00:24:15.846Z,2.73
2019-04-23T00:26:58.063Z,2.63
2019-04-23T00:29:22.637Z,2.50
2019-04-23T00:31:32.888Z,2.83
2019-04-23T00:34:05.454Z,2.77
2019-04-23T00:39:06.295Z,2.57
2019-04-23T00:41:36.590Z,2.70
2019-04-23T00:44:01.984Z,2.90
2019-04-23T00:46:35.113Z,2.70
2019-04-23T00:49:07.445Z,2.70
2019-04-23T00:51:33.084Z,2.90
2019-04-23T00:54:06.101Z,2.50
2019-04-23T00:56:38.206Z,2.70
2019-04-23T00:59:02.688Z,2.87
2019-04-23T01:01:38.862Z,2.57
2019-04-23T01:04:01.553Z,2.57
2019-04-23T01:06:44.626Z,3.00
2019-04-23T01:11:32.073Z,2.70
2019-04-23T01:13:53.011Z,2.80
2019-04-23T01:16:29.810Z,2.53
2019-04-23T01:19:24.507Z,2.57
2019-04-23T01:21:19.928Z,2.93
2019-04-23T01:24:12.028Z,2.90
2019-04-23T01:30:10.019Z,2.70
2019-04-23T01:32:37.650Z,2.50
2019-04-23T01:35:13.854Z,2.77
2019-04-23T01:37:36.821Z,2.70
2019-04-23T01:42:40.518Z,2.90
2019-04-23T01:45:11.663Z,2.93
2019-04-23T01:47:39.054Z,2.77
2019-04-23T01:50:11.347Z,2.60
2019-04-23T01:52:41.748Z,3.33
2019-04-23T01:55:08.953Z,2.83
2019-04-23T01:57:37.962Z,3.07
2019-04-23T02:00:08.554Z,3.50
2019-04-23T02:05:09.394Z,2.70
2019-04-23T02:07:42.075Z,3.37
2019-04-23T02:10:07.173Z,3.00
2019-04-23T02:12:34.041Z,3.30
2019-04-23T02:15:10.194Z,3.13
2019-04-23T02:20:14.155Z,3.50
2019-04-23T02:23:14.398Z,3.37
2019-04-23T02:28:04.472Z,3.37
2019-04-23T02:40:49.645Z,3.23
2019-04-23T02:43:13.023Z,3.77
2019-04-23T02:45:39.824Z,3.43
2019-04-23T02:48:16.823Z,3.40
2019-04-23T02:53:04.768Z,3.43
2019-04-23T02:58:10.617Z,3.23
2019-04-23T03:05:36.375Z,3.80
2019-04-23T03:10:32.224Z,3.27
2019-04-23T03:15:50.443Z,3.80
2019-04-23T03:26:27.276Z,3.50
2019-04-23T03:28:47.099Z,3.73
2019-04-23T03:38:47.372Z,3.70
2019-04-23T03:41:14.993Z,4.10
2019-04-23T03:43:38.975Z,3.57
2019-04-23T03:48:42.067Z,3.80
2019-04-23T03:51:05.955Z,3.73
2019-04-23T03:53:42.879Z,3.87
2019-04-23T03:58:42.671Z,3.60
2019-04-23T04:01:07.172Z,3.80
2019-04-23T04:04:04.317Z,4.20
2019-04-23T04:06:05.276Z,4.00
2019-04-23T04:13:51.321Z,4.07
2019-04-23T04:16:00.851Z,3.60
2019-04-23T04:18:39.181Z,3.77
2019-04-23T04:21:08.523Z,4.17
2019-04-23T04:23:40.446Z,4.03
2019-04-23T04:28:38.921Z,3.90
2019-04-23T04:41:03.068Z,4.30
2019-04-23T04:46:14.870Z,4.47
2019-04-23T04:48:37.766Z,4.30
2019-04-23T04:53:46.714Z,4.40
2019-04-23T04:56:11.598Z,4.70
2019-04-23T04:58:32.295Z,4.30
2019-04-23T05:01:07.597Z,4.27
2019-04-23T05:08:29.063Z,4.87
2019-04-23T05:11:05.392Z,5.00
2019-04-23T05:15:51.533Z,4.73
2019-04-23T05:19:43.503Z,4.70
2019-04-23T05:26:09.252Z,4.80
2019-04-23T05:28:44.548Z,4.43
2019-04-23T05:31:09.805Z,4.63
2019-04-23T05:33:38.146Z,4.40
2019-04-23T05:36:26.653Z,4.70
2019-04-23T05:41:09.970Z,4.67
2019-04-23T05:43:40.836Z,5.10
2019-04-23T05:46:04.389Z,4.77
2019-04-23T05:51:40.124Z,5.57
2019-04-23T05:53:47.187Z,5.20
2019-04-23T05:56:15.622Z,4.83
2019-04-23T06:01:32.173Z,5.23
2019-04-23T06:03:50.951Z,5.20
2019-04-23T06:06:20.808Z,5.40
2019-04-23T06:08:51.637Z,5.43
2019-04-23T06:11:18.560Z,5.37
2019-04-23T06:13:56.169Z,4.93
2019-04-23T06:16:22.273Z,5.27
2019-04-23T06:21:17.269Z,5.00
2019-04-23T06:26:26.934Z,5.00
2019-04-23T06:28:56.145Z,5.83
2019-04-23T06:31:24.423Z,5.20
2019-04-23T06:33:52.352Z,5.13
2019-04-23T06:36:23.126Z,5.57
2019-04-23T06:38:57.162Z,4.80
2019-04-23T06:41:15.591Z,5.37
2019-04-23T06:44:03.620Z,5.67
2019-04-23T06:46:20.101Z,5.70
2019-04-23T06:48:47.581Z,5.20
2019-04-23T06:51:28.664Z,5.93
2019-04-23T06:53:43.108Z,5.40
2019-04-23T06:56:24.989Z,5.33
2019-04-23T06:58:50.435Z,5.47
2019-04-23T07:01:25.612Z,5.80
2019-04-23T07:03:55.755Z,5.50
2019-04-23T07:13:57.781Z,5.87
2019-04-23T07:16:36.275Z,5.50
2019-04-23T07:18:52.233Z,5.33
2019-04-23T07:24:05.266Z,5.70
2019-04-23T07:26:30.578Z,5.83
2019-04-23T07:33:55.830Z,6.00
2019-04-23T07:36:23.958Z,5.63
2019-04-23T07:50:09.819Z,5.73
2019-04-23T07:55:03.007Z,5.50
2019-04-23T07:57:29.205Z,5.30
2019-04-23T08:00:09.272Z,5.60
2019-04-23T08:02:27.401Z,5.80
2019-04-23T08:05:11.294Z,5.60
2019-04-23T08:07:26.814Z,5.73
2019-04-23T08:10:02.055Z,6.43
2019-04-23T08:12:42.454Z,5.73
2019-04-23T08:17:22.444Z,6.00
2019-04-23T08:22:26.970Z,9.80
2019-04-23T08:25:26.591Z,6.17
2019-04-23T08:27:44.690Z,5.60
2019-04-23T08:30:09.388Z,5.77
2019-04-23T08:32:47.672Z,5.73
2019-04-23T08:35:27.073Z,5.90
2019-04-23T08:40:15.184Z,6.00
2019-04-23T08:48:04.077Z,5.70
2019-04-23T08:50:29.701Z,6.00
2019-04-23T08:53:05.261Z,5.80
2019-04-23T08:55:32.674Z,5.97
2019-04-23T08:57:47.073Z,5.23
2019-04-23T09:00:31.426Z,5.87
2019-04-23T09:03:13.160Z,6.30
2019-04-23T09:08:01.495Z,5.80
2019-04-23T09:10:29.785Z,5.83
2019-04-23T09:13:00.873Z,5.93
2019-04-23T09:15:31.477Z,6.00
2019-04-23T09:17:56.295Z,5.80
2019-04-23T09:23:01.905Z,6.03
2019-04-23T09:25:32.867Z,5.57
2019-04-23T09:27:56.310Z,6.00
2019-04-23T09:30:18.799Z,5.80
2019-04-23T09:32:58.820Z,6.20
2019-04-23T09:35:59.764Z,6.17
2019-04-23T09:38:39.622Z,5.40
2019-04-23T09:42:01.038Z,6.13
2019-04-23T09:44:48.474Z,5.70
2019-04-23T09:47:30.052Z,6.07
2019-04-23T09:50:00.887Z,5.70
2019-04-23T09:55:04.718Z,5.80
2019-04-23T09:57:24.659Z,6.13
2019-04-23T10:00:01.851Z,5.67
2019-04-23T10:02:19.264Z,6.00
2019-04-23T10:04:47.670Z,5.60
2019-04-23T10:07:13.417Z,5.70
2019-04-23T10:09:27.659Z,6.00
2019-04-23T10:11:56.359Z,5.80
2019-04-23T10:14:24.503Z,6.07
2019-04-23T10:16:53.360Z,5.47
2019-04-23T10:19:22.578Z,5.73
2019-04-23T10:21:51.348Z,6.17
2019-04-23T10:24:19.351Z,6.20
2019-04-23T10:26:48.143Z,6.00
2019-04-23T10:29:20.818Z,5.90
2019-04-23T10:31:49.486Z,6.40
2019-04-23T10:34:18.975Z,6.20
2019-04-23T10:36:47.396Z,6.00
2019-04-23T10:39:21.312Z,6.30
2019-04-23T10:41:46.778Z,6.07
2019-04-23T10:44:38.017Z,5.90
2019-04-23T10:47:53.938Z,5.93
2019-04-23T10:50:44.130Z,6.57
2019-04-23T10:53:10.237Z,6.17
2019-04-23T10:55:44.723Z,5.90
2019-04-23T10:58:02.576Z,5.87
2019-04-23T11:00:35.870Z,6.07
2019-04-23T11:03:12.326Z,5.97
2019-04-23T11:05:48.197Z,5.77
2019-04-23T11:08:02.303Z,5.87
2019-04-23T11:10:28.737Z,5.93
2019-04-23T11:13:21.354Z,5.80
2019-04-23T11:15:55.697Z,6.00
2019-04-23T11:18:02.945Z,5.90
2019-04-23T11:20:47.990Z,5.90
2019-04-23T11:23:11.557Z,5.83
2019-04-23T11:25:45.103Z,5.97
2019-04-23T11:28:20.928Z,5.83
2019-04-23T11:30:45.373Z,5.90
2019-04-23T11:33:20.276Z,5.77
2019-04-23T11:36:18.930Z,5.80
2019-04-23T11:40:43.645Z,5.90
2019-04-23T11:45:54.051Z,6.30
2019-04-23T11:53:29.121Z,6.17
2019-04-23T11:58:20.803Z,5.93
2019-04-23T12:01:10.864Z,6.03
2019-04-23T12:03:45.471Z,5.67
2019-04-23T12:06:31.338Z,5.33
2019-04-23T12:09:17.786Z,5.90
2019-04-23T12:11:54.575Z,5.97
2019-04-23T12:14:29.133Z,5.80
2019-04-23T12:22:02.921Z,6.03
2019-04-23T12:24:50.251Z,6.40
2019-04-23T12:29:27.194Z,5.40
2019-04-23T12:32:24.190Z,5.73
2019-04-23T12:34:55.648Z,5.97
2019-04-23T12:37:16.862Z,5.30
2019-04-23T12:39:45.450Z,6.73
2019-04-23T12:42:38.377Z,6.20
2019-04-23T12:44:45.768Z,5.77
2019-04-23T12:47:27.212Z,6.50
2019-04-23T12:52:17.108Z,5.80
2019-04-23T12:57:21.347Z,5.80
2019-04-23T12:59:44.429Z,5.90
2019-04-23T13:02:22.883Z,6.13
2019-04-23T13:04:47.539Z,6.60
2019-04-23T13:07:20.964Z,6.53
2019-04-23T13:09:48.253Z,6.30
2019-04-23T13:12:27.687Z,6.27
2019-04-23T13:14:49.098Z,6.00
2019-04-23T13:17:22.666Z,6.40
2019-04-23T13:19:49.550Z,6.47
2019-04-23T13:22:16.433Z,6.03
2019-04-23T13:25:05.314Z,6.67
2019-04-23T13:27:49.961Z,6.33
2019-04-23T13:30:16.883Z,6.10
2019-04-23T13:32:48.507Z,6.63
2019-04-23T13:35:18.597Z,6.77
2019-04-23T13:37:46.480Z,6.70
2019-04-23T13:40:09.627Z,5.77
2019-04-23T13:45:20.555Z,6.33
2019-04-23T13:47:50.824Z,6.30
2019-04-23T13:50:17.620Z,6.20
2019-04-23T13:53:07.917Z,5.47
2019-04-23T13:55:10.902Z,6.10
2019-04-23T13:58:07.583Z,5.93
2019-04-23T14:00:09.522Z,6.20
2019-04-23T14:02:44.225Z,5.40
2019-04-23T14:05:35.799Z,5.80
2019-04-23T14:08:13.621Z,6.33
2019-04-23T14:10:48.113Z,5.63
2019-04-23T14:13:16.895Z,5.67
2019-04-23T14:15:40.530Z,6.30
2019-04-23T14:18:33.154Z,5.40
2019-04-23T14:20:31.595Z,5.97
2019-04-23T14:25:45.482Z,5.80
2019-04-23T14:28:14.306Z,5.90
2019-04-23T14:30:38.412Z,5.57
2019-04-23T14:33:12.020Z,6.43
2019-04-23T14:35:45.253Z,6.07
2019-04-23T14:38:18.100Z,6.20
2019-04-23T14:40:39.611Z,6.57
2019-04-23T14:45:59.808Z,6.47
2019-04-23T14:48:10.384Z,6.53
2019-04-23T14:50:39.992Z,6.50
2019-04-23T14:53:12.102Z,6.27
2019-04-23T14:55:50.281Z,5.70
2019-04-23T14:58:15.914Z,5.90
2019-04-23T15:00:44.575Z,5.93
2019-04-23T15:03:17.983Z,5.70
2019-04-23T15:08:03.907Z,5.30
2019-04-23T15:10:41.830Z,5.73
2019-04-23T15:13:08.659Z,5.40
2019-04-23T15:15:33.973Z,5.50
2019-04-23T15:18:13.542Z,6.17
2019-04-23T15:20:55.869Z,5.83
2019-04-23T15:23:32.970Z,5.70
2019-04-23T15:26:15.709Z,5.70
2019-04-23T15:30:52.059Z,5.70
2019-04-23T15:36:12.933Z,5.70
2019-04-23T15:38:33.998Z,5.70
2019-04-23T15:40:45.265Z,5.90
2019-04-23T15:45:45.370Z,6.17
2019-04-23T15:48:16.218Z,6.20
2019-04-23T15:50:43.473Z,5.93
2019-04-23T15:53:04.710Z,5.80
2019-04-23T15:55:55.452Z,5.57
2019-04-23T15:58:14.303Z,6.00
2019-04-23T16:00:48.096Z,5.50
2019-04-23T16:02:46.079Z,6.23
2019-04-23T16:05:15.850Z,5.90
2019-04-23T16:08:02.037Z,6.10
2019-04-23T16:10:47.543Z,6.97
2019-04-23T16:13:31.014Z,6.17
2019-04-23T16:15:44.649Z,5.73
2019-04-23T16:18:37.378Z,6.10
2019-04-23T16:21:03.431Z,6.30
2019-04-23T16:23:37.759Z,6.50
2019-04-23T16:26:12.301Z,6.60
2019-04-23T16:28:51.774Z,6.53
2019-04-23T16:31:03.269Z,6.03
2019-04-23T16:33:32.064Z,6.77
2019-04-23T16:36:11.432Z,6.67
2019-04-23T16:41:09.246Z,6.47
2019-04-23T16:43:38.259Z,6.70
2019-04-23T16:46:13.075Z,6.63
2019-04-23T16:51:16.610Z,6.80
2019-04-23T16:53:31.511Z,7.73
2019-04-23T16:56:13.407Z,6.60
2019-04-23T16:59:00.121Z,6.90
2019-04-23T17:01:08.471Z,6.73
2019-04-23T17:03:40.156Z,6.23
2019-04-23T17:06:12.148Z,6.63
2019-04-23T17:08:51.943Z,7.03
2019-04-23T17:11:10.153Z,6.40
2019-04-23T17:13:39.784Z,6.77
2019-04-23T17:21:09.025Z,7.17
2019-04-23T17:26:13.756Z,6.40
2019-04-23T17:28:31.037Z,6.90
2019-04-23T17:38:51.370Z,6.63
2019-04-23T17:44:02.944Z,7.30
2019-04-23T17:46:23.848Z,7.23
2019-04-23T17:51:19.871Z,7.50
2019-04-23T17:53:59.350Z,7.10
2019-04-23T17:56:29.003Z,8.10
2019-04-23T17:58:55.035Z,6.47
2019-04-23T18:04:13.972Z,7.90
2019-04-23T18:13:57.338Z,7.90
2019-04-23T18:19:04.924Z,11.50
2019-04-23T18:21:50.629Z,11.10
2019-04-23T18:24:42.286Z,8.17
2019-04-23T18:27:06.700Z,6.70
2019-04-23T18:29:45.812Z,7.30
2019-04-23T18:35:08.725Z,8.13
2019-04-23T18:37:22.591Z,7.10
2019-04-23T18:39:48.474Z,7.10
2019-04-23T18:42:25.788Z,7.30
2019-04-23T18:44:50.248Z,7.20
2019-04-23T18:47:26.951Z,6.90
2019-04-23T18:49:47.447Z,7.27
2019-04-23T18:52:29.598Z,7.50
2019-04-23T18:54:48.115Z,7.63
2019-04-23T18:59:50.938Z,7.40
2019-04-23T19:02:44.906Z,7.40
2019-04-23T19:08:10.548Z,7.90
2019-04-23T19:10:36.136Z,6.57
2019-04-23T19:13:11.106Z,7.50
2019-04-23T19:15:38.301Z,7.17
2019-04-23T19:18:08.563Z,7.40
2019-04-23T19:20:55.792Z,7.70
2019-04-23T19:25:40.533Z,7.17
2019-04-23T19:28:23.643Z,7.10
2019-04-23T19:31:04.914Z,6.70
2019-04-23T19:33:29.248Z,7.33
2019-04-23T19:36:05.115Z,6.80
2019-04-23T19:38:23.914Z,7.00
2019-04-23T19:43:19.516Z,7.23
2019-04-23T19:45:55.592Z,7.20
2019-04-23T19:53:25.203Z,7.33
2019-04-23T19:55:56.711Z,6.50
2019-04-23T19:58:26.213Z,6.70
2019-04-23T20:01:12.119Z,7.13
2019-04-23T20:05:54.197Z,7.30
2019-04-23T20:08:34.105Z,7.30
2019-04-23T20:10:48.182Z,6.70
2019-04-23T20:13:19.352Z,6.67
2019-04-23T20:16:02.811Z,6.90
2019-04-23T20:18:22.595Z,6.80
2019-04-23T20:20:49.529Z,6.93
2019-04-23T20:23:25.729Z,6.90
2019-04-23T20:26:10.451Z,7.00
2019-04-23T20:28:55.119Z,6.90
2019-04-23T20:36:40.679Z,6.77
2019-04-23T20:42:02.355Z,6.70
2019-04-23T20:44:37.436Z,7.33
2019-04-23T20:47:00.542Z,7.03
2019-04-23T20:49:37.428Z,6.70
2019-04-23T20:52:03.654Z,6.73
2019-04-23T20:54:36.196Z,6.33
2019-04-23T20:57:01.280Z,6.60
2019-04-23T20:59:30.778Z,6.83
2019-04-23T21:02:28.475Z,6.70
2019-04-23T21:04:54.800Z,6.77
2019-04-23T21:07:17.954Z,6.70
2019-04-23T21:10:00.921Z,6.60
2019-04-23T21:12:30.239Z,6.23
2019-04-23T21:14:58.869Z,6.93
2019-04-23T21:17:16.954Z,6.70
2019-04-23T21:19:50.380Z,6.93
2019-04-23T21:22:13.705Z,6.70
2019-04-23T21:24:47.838Z,6.27
2019-04-23T21:27:35.841Z,7.17
2019-04-23T21:30:00.670Z,6.57
2019-04-23T21:32:28.898Z,6.70
2019-04-23T21:34:56.455Z,6.70
2019-04-23T21:37:49.988Z,6.57
2019-04-23T21:45:40.840Z,6.50
2019-04-23T21:48:09.680Z,7.00
2019-04-23T21:50:45.995Z,6.80
2019-04-23T21:53:11.654Z,6.80
2019-04-23T21:55:48.551Z,6.53
2019-04-23T21:58:20.093Z,7.40
2019-04-23T22:00:48.227Z,6.80
2019-04-23T22:03:12.050Z,6.50
2019-04-23T22:05:47.936Z,6.80
2019-04-23T22:08:03.052Z,6.77
2019-04-23T22:10:32.308Z,6.90
2019-04-23T22:15:45.196Z,7.40
2019-04-23T22:18:07.002Z,6.47
2019-04-23T22:23:10.667Z,6.57
2019-04-23T22:25:46.999Z,6.80
2019-04-23T22:28:10.139Z,6.50
2019-04-23T22:30:45.931Z,6.67
2019-04-23T22:35:43.163Z,7.03
2019-04-23T22:38:13.283Z,6.87
2019-04-23T22:40:34.466Z,6.60
2019-04-23T22:45:38.414Z,7.00
2019-04-23T22:50:38.689Z,6.90
2019-04-23T22:55:44.217Z,6.37
2019-04-23T23:00:55.622Z,6.47
2019-04-23T23:03:11.603Z,6.70
2019-04-23T23:06:12.595Z,6.90
2019-04-23T23:10:53.994Z,6.20
2019-04-23T23:13:20.657Z,7.20
2019-04-23T23:15:53.390Z,6.67
2019-04-23T23:18:17.722Z,6.73
2019-04-23T23:20:52.678Z,6.67
2019-04-23T23:23:19.474Z,6.47
2019-04-23T23:25:51.561Z,6.90
2019-04-23T23:30:45.227Z,7.10
2019-04-23T23:33:36.532Z,6.90
2019-04-23T23:38:29.250Z,6.20
2019-04-23T23:40:57.192Z,6.43
2019-04-23T23:43:27.155Z,6.77
2019-04-23T23:45:57.461Z,7.00
2019-04-23T23:48:24.723Z,6.87
2019-04-23T23:50:55.101Z,7.00
2019-04-23T23:53:33.905Z,6.50
2019-04-23T23:55:48.663Z,6.40
